Time;durP1;ratioP1;P1;durP2;ratioP2;P2;SDS_P1;SDS_P2;PMS_P1;PMS_P2;Temp;Humidity;BMP_temperature;BMP_pressure;BME280_temperature;BME280_humidity;BME280_pressure;Samples;Min_cycle;Max_cycle;Signal;HPM_P1;HPM_P2
2022/05/30 00:01:09;;;;;;;23.00;7.90;;;;;;;8.18;64.13;100855.53;5095037;28;20495;-43
2022/05/30 00:03:39;;;;;;;40.60;9.90;;;;;;;8.37;63.51;100878.41;5095104;28;20081;-44
2022/05/30 00:06:11;;;;;;;26.00;11.32;;;;;;;8.27;64.22;100865.22;5095345;28;20028;-45
2022/05/30 00:08:37;;;;;;;28.38;10.75;;;;;;;8.33;63.84;100873.41;5077089;28;20039;-44
2022/05/30 00:11:05;;;;;;;18.42;8.32;;;;;;;8.30;63.08;100873.75;5094645;28;20108;-42
2022/05/30 00:13:31;;;;;;;16.80;6.63;;;;;;;8.27;63.40;100863.38;5094742;28;20457;-43
2022/05/30 00:15:57;;;;;;;10.55;4.82;;;;;;;8.16;63.66;100869.06;5094933;28;20035;-42
2022/05/30 00:18:23;;;;;;;12.00;5.60;;;;;;;7.99;64.73;100857.53;5095565;28;20131;-42
2022/05/30 00:20:49;;;;;;;19.23;5.63;;;;;;;7.94;64.58;100852.69;5060893;28;20020;-43
2022/05/30 00:23:15;;;;;;;17.48;5.80;;;;;;;7.75;65.40;100847.66;5077694;28;20048;-43
2022/05/30 00:25:42;;;;;;;14.45;5.90;;;;;;;7.48;67.37;100849.63;5095645;28;20040;-44
2022/05/30 00:28:09;;;;;;;16.45;6.13;;;;;;;7.56;66.29;100846.97;5095458;28;20107;-43
2022/05/30 00:30:36;;;;;;;22.35;6.07;;;;;;;7.55;66.90;100847.13;5095053;28;20357;-43
2022/05/30 00:33:02;;;;;;;16.63;5.25;;;;;;;7.64;65.56;100837.31;5076673;28;20032;-43
2022/05/30 00:35:28;;;;;;;15.52;5.30;;;;;;;7.60;65.47;100838.63;5096199;28;20039;-45
2022/05/30 00:37:53;;;;;;;17.58;5.28;;;;;;;7.57;65.45;100845.13;5095787;28;20028;-42
2022/05/30 00:40:19;;;;;;;10.75;4.75;;;;;;;7.57;65.54;100843.28;5094676;28;20098;-47
2022/05/30 00:42:45;;;;;;;19.63;5.68;;;;;;;7.48;66.09;100836.25;5093918;28;20046;-44
2022/05/30 00:45:11;;;;;;;15.40;4.72;;;;;;;7.40;65.66;100835.41;5095374;28;20036;-43
2022/05/30 00:47:38;;;;;;;12.60;4.50;;;;;;;7.35;65.48;100831.41;5076166;28;20024;-44
2022/05/30 00:50:05;;;;;;;13.65;4.43;;;;;;;7.38;66.54;100840.09;5094594;28;20081;-43
2022/05/30 00:52:36;;;;;;;18.08;4.50;;;;;;;7.23;65.99;100827.38;5094405;28;20089;-43
2022/05/30 00:55:15;;;;;;;11.00;3.50;;;;;;;7.31;66.36;100840.72;5094574;28;20028;-44
2022/05/30 00:57:43;;;;;;;8.73;3.83;;;;;;;7.20;66.72;100840.19;5094164;28;20032;-43
2022/05/30 01:00:19;;;;;;;13.15;4.05;;;;;;;7.29;66.98;100845.41;5075940;28;20052;-43
2022/05/30 01:02:46;;;;;;;9.32;3.72;;;;;;;7.34;66.26;100847.59;5094352;28;20032;-45
2022/05/30 01:08:02;;;;;;;24.38;7.28;;;;;;;7.45;66.09;100835.78;5082010;28;20185;-43
2022/05/30 01:10:28;;;;;;;70.10;19.75;;;;;;;7.59;66.11;100842.31;5075687;28;20371;-43
2022/05/30 01:12:56;;;;;;;126.88;31.27;;;;;;;7.68;65.66;100844.81;5075020;28;20111;-44
2022/05/30 01:15:27;;;;;;;109.45;32.08;;;;;;;7.66;64.89;100827.28;5093675;28;20114;-44
2022/05/30 01:18:03;;;;;;;75.63;24.40;;;;;;;7.69;65.10;100824.25;5042264;28;20035;-42
2022/05/30 01:20:40;;;;;;;46.13;13.93;;;;;;;7.69;65.20;100827.78;5093577;28;20028;-43
2022/05/30 01:23:31;;;;;;;37.92;11.60;;;;;;;7.48;65.42;100806.84;5087879;28;20045;-43
2022/05/30 01:26:13;;;;;;;22.70;7.22;;;;;;;7.31;67.00;100819.34;5058262;28;20058;-44
2022/05/30 01:28:45;;;;;;;28.13;5.95;;;;;;;7.06;67.44;100796.28;5055373;28;20385;-43
2022/05/30 01:31:12;;;;;;;27.88;7.53;;;;;;;7.02;68.32;100801.09;5073694;28;20094;-43
2022/05/30 01:33:38;;;;;;;19.45;6.40;;;;;;;6.96;68.66;100805.25;5073819;28;20043;-43
2022/05/30 01:38:32;;;;;;;17.67;5.10;;;;;;;6.96;68.42;100794.56;5074117;28;20048;-42
2022/05/30 01:40:59;;;;;;;14.15;4.50;;;;;;;7.10;68.40;100792.28;5057286;28;20056;-42
2022/05/30 01:43:25;;;;;;;10.23;4.15;;;;;;;7.17;67.64;100778.09;5078458;28;20028;-42
2022/05/30 01:45:50;;;;;;;14.20;4.70;;;;;;;7.22;68.74;100785.59;5078056;28;20040;-42
2022/05/30 01:48:16;;;;;;;9.68;4.25;;;;;;;7.33;68.60;100798.66;5077453;28;20101;-42
2022/05/30 01:50:44;;;;;;;15.18;4.35;;;;;;;7.42;67.87;100785.31;5060301;28;20033;-45
2022/05/30 01:53:11;;;;;;;13.38;4.43;;;;;;;7.42;67.71;100780.81;5059312;28;20029;-43
2022/05/30 01:55:37;;;;;;;11.68;4.05;;;;;;;7.44;67.28;100777.97;5059430;28;20157;-45
2022/05/30 01:58:03;;;;;;;8.15;3.50;;;;;;;7.44;67.72;100772.63;5059056;28;20021;-43
2022/05/30 02:00:29;;;;;;;16.15;4.15;;;;;;;7.66;66.98;100788.00;5077022;28;20494;-42
2022/05/30 02:02:55;;;;;;;40.45;11.48;;;;;;;7.73;66.80;100788.19;5059175;28;20033;-41
2022/05/30 02:05:21;;;;;;;31.38;10.43;;;;;;;7.80;66.69;100781.19;5076744;28;20043;-42
2022/05/30 02:07:46;;;;;;;19.42;7.20;;;;;;;7.60;67.74;100777.16;5076939;28;20124;-41
2022/05/30 02:10:12;;;;;;;15.05;5.10;;;;;;;7.46;67.64;100779.47;5058582;28;20075;-43
2022/05/30 02:12:38;;;;;;;8.60;4.13;;;;;;;7.33;67.53;100760.41;5076399;28;20025;-43
2022/05/30 02:15:04;;;;;;;9.45;3.22;;;;;;;7.52;67.51;100776.16;5076755;28;20056;-42
2022/05/30 02:17:32;;;;;;;9.20;3.25;;;;;;;7.55;67.14;100754.41;5076219;28;20028;-42
2022/05/30 02:19:58;;;;;;;5.75;3.13;;;;;;;7.59;66.51;100754.94;5076367;28;20067;-42
2022/05/30 02:22:29;;;;;;;9.13;2.97;;;;;;;7.75;66.55;100762.94;5076675;28;20056;-42
2022/05/30 02:24:56;;;;;;;7.22;2.70;;;;;;;7.86;65.91;100753.75;5059694;28;20037;-42
2022/05/30 02:27:23;;;;;;;6.03;2.78;;;;;;;7.92;65.53;100754.91;5076257;28;20449;-42
2022/05/30 02:29:48;;;;;;;8.65;2.97;;;;;;;7.93;65.58;100757.44;5076449;28;20040;-42
2022/05/30 02:32:14;;;;;;;9.70;3.05;;;;;;;7.87;65.86;100750.06;5076636;28;20142;-42
2022/05/30 02:37:26;;;;;;;5.20;2.08;;;;;;;7.89;66.32;100742.72;5061619;28;20035;-50
2022/05/30 02:39:52;;;;;;;4.53;2.38;;;;;;;7.90;66.11;100748.91;5077502;28;20032;-43
2022/05/30 02:42:18;;;;;;;8.35;2.97;;;;;;;7.82;66.86;100741.72;5058764;28;20058;-46
2022/05/30 02:44:44;;;;;;;9.65;2.20;;;;;;;7.82;66.46;100739.06;5077014;28;20025;-44
2022/05/30 02:47:10;;;;;;;9.23;2.58;;;;;;;7.92;66.20;100734.34;5076279;28;20025;-43
2022/05/30 02:49:36;;;;;;;14.85;2.45;;;;;;;7.92;66.69;100734.34;5058539;28;20078;-48
2022/05/30 02:52:03;;;;;;;5.78;2.10;;;;;;;7.90;66.63;100736.38;5076182;28;20094;-42
2022/05/30 02:54:29;;;;;;;7.82;3.10;;;;;;;7.86;66.43;100734.22;5076779;28;20029;-43
2022/05/30 02:56:58;;;;;;;10.02;4.00;;;;;;;7.74;67.15;100712.31;5076893;28;20062;-43
2022/05/30 02:59:25;;;;;;;9.75;3.55;;;;;;;7.79;67.38;100736.72;5059302;28;20033;-43
2022/05/30 03:01:51;;;;;;;6.15;2.47;;;;;;;7.74;66.90;100721.19;5059127;28;20029;-42
2022/05/30 03:04:19;;;;;;;9.27;2.78;;;;;;;7.82;66.94;100738.19;5059659;28;20024;-43
2022/05/30 03:06:46;;;;;;;5.18;2.90;;;;;;;7.72;67.39;100725.84;5077450;28;20032;-42
2022/05/30 03:09:13;;;;;;;11.85;3.55;;;;;;;7.71;68.03;100728.72;5057797;28;20044;-43
2022/05/30 03:11:39;;;;;;;10.95;2.60;;;;;;;7.70;67.37;100730.53;5075206;28;20461;-42
2022/05/30 03:14:05;;;;;;;5.47;2.10;;;;;;;7.79;67.65;100727.88;5075195;28;20374;-43
2022/05/30 03:16:31;;;;;;;6.45;2.20;;;;;;;7.73;67.75;100718.69;5075244;28;20089;-44
2022/05/30 03:18:57;;;;;;;6.05;2.50;;;;;;;7.76;67.88;100721.00;5075510;28;20085;-43
2022/05/30 03:21:23;;;;;;;8.18;2.40;;;;;;;7.84;67.69;100731.69;5074988;28;20028;-43
2022/05/30 03:23:49;;;;;;;6.25;1.98;;;;;;;7.85;67.09;100713.81;5068594;28;20055;-43
2022/05/30 03:26:16;;;;;;;9.10;2.08;;;;;;;7.89;66.79;100724.00;5095830;28;20080;-43
2022/05/30 03:28:42;;;;;;;5.22;2.38;;;;;;;7.88;67.20;100724.19;5094984;28;20040;-42
2022/05/30 03:31:09;;;;;;;6.82;2.33;;;;;;;7.86;67.01;100713.66;5095475;28;20422;-42
2022/05/30 03:33:36;;;;;;;8.82;2.55;;;;;;;7.91;66.46;100726.50;5095287;28;20110;-42
2022/05/30 03:36:07;;;;;;;16.13;4.07;;;;;;;7.81;67.15;100715.16;5094965;28;20028;-43
2022/05/30 03:38:34;;;;;;;9.98;3.60;;;;;;;7.83;67.55;100721.16;5076839;28;20069;-43
2022/05/30 03:40:59;;;;;;;9.02;2.42;;;;;;;7.75;67.38;100704.13;5095421;28;20371;-44
2022/05/30 03:43:26;;;;;;;6.07;2.70;;;;;;;7.85;67.51;100719.97;5096594;28;20099;-43
2022/05/30 03:45:53;;;;;;;7.22;2.05;;;;;;;7.80;67.39;100716.16;5098871;28;20062;-44
2022/05/30 03:48:21;;;;;;;4.53;1.90;;;;;;;7.70;67.85;100711.00;5099018;28;20380;-43
2022/05/30 03:50:48;;;;;;;8.57;2.15;;;;;;;7.55;68.44;100700.97;5080600;28;20028;-44
2022/05/30 03:53:14;;;;;;;4.82;2.08;;;;;;;7.41;68.49;100685.63;5078617;28;20067;-45
2022/05/30 03:55:44;;;;;;;5.85;2.17;;;;;;;7.45;68.64;100711.00;5096811;28;20162;-43
2022/05/30 03:58:11;;;;;;;4.28;2.40;;;;;;;7.35;68.84;100711.19;5096046;28;20453;-42
2022/05/30 04:00:40;;;;;;;4.53;1.83;;;;;;;7.23;69.12;100692.97;5095566;28;20036;-43
2022/05/30 04:03:06;;;;;;;6.65;1.63;;;;;;;7.37;69.01;100705.66;5077574;28;20477;-43
2022/05/30 04:05:32;;;;;;;3.53;1.70;;;;;;;7.32;68.76;100698.16;5094313;28;20447;-43
2022/05/30 04:07:58;;;;;;;5.60;2.00;;;;;;;7.35;68.74;100713.00;5076600;28;20032;-43
2022/05/30 04:10:25;;;;;;;3.70;1.92;;;;;;;7.34;68.55;100714.84;5094827;28;20039;-42
2022/05/30 04:12:58;;;;;;;6.18;2.15;;;;;;;7.25;69.37;100704.31;5076504;28;20032;-43
2022/05/30 04:15:24;;;;;;;7.63;1.70;;;;;;;7.30;68.28;100704.63;5076449;28;20455;-43
2022/05/30 04:17:49;;;;;;;6.95;2.28;;;;;;;7.29;68.90;100698.47;5076613;28;20055;-43
2022/05/30 04:20:16;;;;;;;6.22;2.38;;;;;;;7.31;69.26;100700.97;5094733;28;20035;-43
2022/05/30 04:22:44;;;;;;;5.60;2.50;;;;;;;7.27;68.54;100695.13;5092158;28;20091;-42
2022/05/30 04:25:11;;;;;;;6.40;2.88;;;;;;;7.30;69.29;100697.47;5074193;28;20349;-44
2022/05/30 04:27:37;;;;;;;11.65;3.10;;;;;;;7.23;68.63;100680.44;5056446;28;20083;-43
2022/05/30 04:30:04;;;;;;;13.77;3.40;;;;;;;7.31;68.87;100692.97;5074106;28;20449;-43
2022/05/30 04:32:30;;;;;;;10.00;2.85;;;;;;;7.29;69.10;100684.28;5074090;28;20028;-43
2022/05/30 04:34:56;;;;;;;12.55;3.25;;;;;;;7.30;68.53;100683.28;5074214;28;20405;-43
2022/05/30 04:37:22;;;;;;;7.10;3.15;;;;;;;7.36;69.03;100675.44;5055818;28;20028;-42
2022/05/30 04:39:47;;;;;;;9.63;2.92;;;;;;;7.42;68.91;100687.28;5073566;28;20040;-43
2022/05/30 04:42:13;;;;;;;7.60;3.20;;;;;;;7.49;68.83;100680.28;5073963;28;20043;-42
2022/05/30 04:44:39;;;;;;;7.55;2.45;;;;;;;7.42;68.18;100668.59;5056214;28;20107;-42
2022/05/30 04:47:06;;;;;;;8.02;2.90;;;;;;;7.57;67.95;100671.41;5073402;28;20031;-42
2022/05/30 04:49:32;;;;;;;5.80;2.67;;;;;;;7.71;67.69;100677.91;5038958;28;20036;-42
2022/05/30 04:51:57;;;;;;;9.38;2.63;;;;;;;7.69;68.56;100685.25;5073211;28;20111;-45
2022/05/30 04:54:24;;;;;;;12.65;2.35;;;;;;;7.75;67.72;100681.91;5073508;28;20025;-45
2022/05/30 04:56:50;;;;;;;7.03;2.03;;;;;;;7.81;68.04;100683.06;5055632;28;20033;-45
2022/05/30 04:59:16;;;;;;;3.25;1.85;;;;;;;7.83;67.32;100673.03;5073965;28;20034;-43
2022/05/30 05:01:42;;;;;;;7.00;1.52;;;;;;;8.00;67.65;100671.97;5073999;28;20028;-43
2022/05/30 05:04:11;;;;;;;5.15;1.65;;;;;;;8.02;67.78;100672.66;5074040;28;20031;-42
2022/05/30 05:06:37;;;;;;;7.57;1.80;;;;;;;8.05;68.20;100679.50;5074176;28;20047;-42
2022/05/30 05:09:24;;;;;;;5.53;1.88;;;;;;;8.14;67.96;100681.16;5056080;28;20032;-41
2022/05/30 05:11:50;;;;;;;4.97;2.30;;;;;;;8.11;68.13;100670.78;5074578;28;20025;-42
2022/05/30 05:14:16;;;;;;;7.00;2.28;;;;;;;8.24;68.11;100676.41;5074652;28;20079;-43
2022/05/30 05:16:42;;;;;;;5.05;1.73;;;;;;;8.31;68.15;100673.91;5055203;28;20465;-42
2022/05/30 05:19:08;;;;;;;3.45;2.00;;;;;;;8.22;68.71;100659.72;5055246;28;20119;-45
2022/05/30 05:21:37;;;;;;;6.70;2.25;;;;;;;8.21;68.90;100651.84;5073495;28;20101;-43
2022/05/30 05:24:06;;;;;;;2.20;1.73;;;;;;;8.39;68.62;100675.69;5073080;28;20064;-43
2022/05/30 05:26:32;;;;;;;5.55;2.28;;;;;;;8.48;68.35;100672.84;5073615;28;20035;-42
2022/05/30 05:28:58;;;;;;;6.22;2.65;;;;;;;8.50;68.95;100672.66;5055568;28;20025;-42
2022/05/30 05:31:31;;;;;;;5.03;1.83;;;;;;;8.58;68.72;100674.47;5055355;28;20032;-42
2022/05/30 05:33:57;;;;;;;8.30;2.30;;;;;;;8.58;68.33;100651.22;5073201;28;20115;-43
2022/05/30 05:36:28;;;;;;;6.28;2.53;;;;;;;8.69;68.45;100666.88;5022208;28;20115;-43
2022/05/30 05:38:54;;;;;;;7.32;2.10;;;;;;;8.76;68.31;100666.16;5073328;28;20078;-42
2022/05/30 05:41:21;;;;;;;4.72;1.92;;;;;;;8.97;66.99;100665.53;5073414;28;20028;-43
2022/05/30 05:43:48;;;;;;;7.38;2.00;;;;;;;9.08;67.00;100663.28;5073832;28;20028;-42
2022/05/30 05:46:17;;;;;;;10.82;3.03;;;;;;;8.87;67.55;100653.19;5073021;28;20520;-42
2022/05/30 05:48:43;;;;;;;5.45;2.30;;;;;;;8.81;67.90;100616.44;5072330;28;20037;-41
2022/05/30 05:51:10;;;;;;;6.47;2.42;;;;;;;9.06;68.26;100651.06;5072939;28;20085;-42
2022/05/30 05:53:36;;;;;;;4.22;2.15;;;;;;;9.06;67.69;100648.38;5073136;28;20443;-42
2022/05/30 05:56:22;;;;;;;3.80;2.20;;;;;;;9.05;68.27;100649.41;5055190;28;20381;-42
2022/05/30 05:58:48;;;;;;;7.80;2.83;;;;;;;9.18;67.35;100648.81;5073748;28;20028;-42
2022/05/30 06:01:17;;;;;;;9.05;2.80;;;;;;;9.08;68.07;100655.25;5073287;28;20089;-42
2022/05/30 06:03:43;;;;;;;7.22;2.75;;;;;;;9.02;68.47;100658.63;5072965;28;20051;-42
2022/05/30 06:06:09;;;;;;;7.72;2.70;;;;;;;9.03;68.78;100657.63;5072926;28;20449;-42
2022/05/30 06:08:35;;;;;;;5.82;2.70;;;;;;;8.99;68.75;100647.44;5074005;28;20025;-42
2022/05/30 06:11:05;;;;;;;5.15;2.53;;;;;;;9.21;67.83;100660.00;5073261;28;20070;-42
2022/05/30 06:13:32;;;;;;;11.30;2.90;;;;;;;9.27;68.18;100670.00;5073464;28;20036;-42
2022/05/30 06:15:57;;;;;;;6.50;2.60;;;;;;;9.23;68.63;100666.00;5072745;28;20103;-47
2022/05/30 06:18:23;;;;;;;4.50;2.45;;;;;;;9.36;67.95;100665.41;5073326;28;20063;-42
2022/05/30 06:20:49;;;;;;;6.60;2.58;;;;;;;9.54;67.34;100664.25;5073391;28;20036;-42
2022/05/30 06:23:15;;;;;;;4.80;2.22;;;;;;;9.72;66.58;100663.91;5072896;28;20127;-42
2022/05/30 06:25:42;;;;;;;5.13;2.17;;;;;;;9.86;65.56;100668.44;5054854;28;20041;-42
2022/05/30 06:28:09;;;;;;;9.68;2.75;;;;;;;9.82;65.56;100643.00;5040060;28;20029;-44
2022/05/30 06:30:36;;;;;;;7.82;2.10;;;;;;;9.77;65.35;100643.56;5076237;28;20032;-42
2022/05/30 06:33:02;;;;;;;5.20;2.30;;;;;;;9.88;65.79;100658.38;5076133;28;20020;-42
2022/05/30 06:35:28;;;;;;;4.95;1.77;;;;;;;9.94;65.64;100654.13;5076313;28;20361;-44
2022/05/30 06:37:53;;;;;;;4.20;1.95;;;;;;;10.03;65.28;100655.69;5076478;28;20032;-42
2022/05/30 06:40:19;;;;;;;4.78;1.98;;;;;;;10.17;64.86;100654.84;5076419;28;20042;-42
2022/05/30 06:42:45;;;;;;;3.33;2.00;;;;;;;10.20;64.07;100645.59;5075735;28;20076;-42
2022/05/30 06:45:12;;;;;;;4.65;1.90;;;;;;;10.47;63.92;100649.44;5075906;28;20036;-42
2022/05/30 06:47:37;;;;;;;5.82;1.98;;;;;;;10.64;62.93;100642.84;5058474;28;20503;-44
2022/05/30 06:50:04;;;;;;;6.57;1.80;;;;;;;10.77;62.19;100642.16;5078161;28;20032;-42
2022/05/30 06:52:30;;;;;;;4.68;1.75;;;;;;;10.75;62.59;100651.41;5060519;28;20032;-42
2022/05/30 06:54:56;;;;;;;4.10;1.80;;;;;;;10.80;62.33;100649.00;5076812;28;20036;-42
2022/05/30 07:00:08;;;;;;;3.95;1.63;;;;;;;10.96;62.19;100645.25;5044223;28;20127;-42
2022/05/30 07:02:36;;;;;;;6.15;2.88;;;;;;;11.16;61.86;100642.72;5075655;28;20107;-42
2022/05/30 07:05:02;;;;;;;3.50;1.65;;;;;;;11.37;61.09;100656.16;5075770;28;20036;-42
2022/05/30 07:07:28;;;;;;;4.57;1.63;;;;;;;11.52;60.75;100655.25;5075705;28;20040;-42
2022/05/30 07:09:54;;;;;;;6.18;1.58;;;;;;;11.65;60.64;100644.59;5075506;28;20033;-42
2022/05/30 07:12:20;;;;;;;8.27;2.10;;;;;;;11.79;60.59;100656.25;5057767;28;20419;-44
2022/05/30 07:14:46;;;;;;;5.50;1.60;;;;;;;11.79;59.57;100635.59;5075673;28;20086;-44
2022/05/30 07:17:11;;;;;;;4.30;1.33;;;;;;;11.96;59.24;100644.19;5057798;28;20461;-42
2022/05/30 07:19:37;;;;;;;4.43;1.55;;;;;;;12.22;59.05;100656.13;5075778;28;20082;-42
2022/05/30 07:22:03;;;;;;;3.63;1.60;;;;;;;12.27;58.52;100655.53;5057230;28;20115;-44
2022/05/30 07:24:29;;;;;;;5.95;1.52;;;;;;;12.22;58.36;100649.91;5074960;28;20079;-42
2022/05/30 07:26:55;;;;;;;3.97;1.73;;;;;;;12.22;58.33;100645.38;5075173;28;20060;-42
2022/05/30 07:29:21;;;;;;;3.45;1.42;;;;;;;12.29;57.85;100638.13;5075028;28;20392;-42
2022/05/30 07:31:47;;;;;;;5.28;1.40;;;;;;;12.28;57.91;100633.78;5075504;28;20099;-43
2022/05/30 07:34:13;;;;;;;6.60;1.60;;;;;;;12.47;56.99;100637.59;5057855;28;20055;-43
2022/05/30 07:36:39;;;;;;;3.92;1.40;;;;;;;12.62;57.02;100623.13;5057276;28;20522;-42
2022/05/30 07:39:04;;;;;;;3.83;1.30;;;;;;;12.72;55.95;100643.28;5039875;28;20021;-43
2022/05/30 07:41:31;;;;;;;4.88;1.30;;;;;;;12.92;55.21;100637.91;5075109;28;20485;-43
2022/05/30 07:43:57;;;;;;;4.50;1.23;;;;;;;13.07;55.15;100632.31;5057346;28;20111;-43
2022/05/30 07:46:25;;;;;;;3.28;1.30;;;;;;;13.32;54.44;100635.28;5074542;28;20036;-44
2022/05/30 07:48:51;;;;;;;3.88;1.55;;;;;;;13.42;54.00;100642.13;5074608;28;20421;-43
2022/05/30 07:51:17;;;;;;;5.85;1.90;;;;;;;13.50;54.09;100623.03;5074676;28;20044;-42
2022/05/30 07:53:44;;;;;;;8.77;1.70;;;;;;;13.42;53.98;100615.97;5074510;28;20020;-44
2022/05/30 07:56:13;;;;;;;4.53;1.58;;;;;;;13.55;53.36;100604.34;5056723;28;20032;-47
2022/05/30 07:58:39;;;;;;;4.68;1.45;;;;;;;13.83;53.36;100627.53;5057074;28;20479;-43
2022/05/30 08:01:10;;;;;;;4.72;1.10;;;;;;;13.61;53.20;100608.88;5056956;28;20024;-43
2022/05/30 08:03:36;;;;;;;4.78;1.10;;;;;;;13.74;52.13;100629.63;5075344;28;20028;-43
2022/05/30 08:06:07;;;;;;;5.68;1.02;;;;;;;13.65;52.51;100630.88;5075431;28;20047;-43
2022/05/30 08:08:33;;;;;;;5.03;1.38;;;;;;;13.73;52.37;100634.22;5074766;28;20036;-43
2022/05/30 08:10:59;;;;;;;3.45;1.23;;;;;;;13.71;51.51;100613.88;5074273;28;20034;-44
2022/05/30 08:13:24;;;;;;;2.17;1.30;;;;;;;13.87;51.40;100634.16;5074154;28;20037;-42
2022/05/30 08:15:51;;;;;;;3.33;1.42;;;;;;;13.92;51.12;100635.19;5074077;28;20033;-42
2022/05/30 08:18:20;;;;;;;8.00;1.42;;;;;;;13.98;51.68;100635.41;5074438;28;20052;-43
2022/05/30 08:20:46;;;;;;;3.70;1.30;;;;;;;14.11;50.82;100636.22;5074346;28;20032;-43
2022/05/30 08:23:12;;;;;;;5.18;1.55;;;;;;;14.10;50.24;100622.91;5073930;28;20378;-43
2022/05/30 08:25:39;;;;;;;4.60;1.25;;;;;;;14.20;50.00;100635.97;5074178;28;20032;-44
2022/05/30 08:28:05;;;;;;;2.40;1.10;;;;;;;14.36;49.99;100637.34;5074288;28;20062;-44
2022/05/30 08:30:31;;;;;;;2.83;0.88;;;;;;;14.43;48.46;100617.38;5074386;28;20024;-43
2022/05/30 08:32:57;;;;;;;6.47;1.58;;;;;;;14.56;48.72;100626.44;5074479;28;20089;-44
2022/05/30 08:35:23;;;;;;;7.95;1.10;;;;;;;14.64;48.96;100618.94;5041108;28;20028;-44
2022/05/30 08:37:50;;;;;;;4.43;1.27;;;;;;;14.93;47.83;100622.09;5075022;28;20046;-44
2022/05/30 08:43:13;;;;;;;3.67;0.93;;;;;;;16.06;46.46;100604.84;5048254;28;20033;-45
2022/05/30 08:45:44;;;;;;;7.20;1.25;;;;;;;16.02;45.57;100609.03;5055991;28;20116;-45
2022/05/30 08:48:15;;;;;;;4.78;1.00;;;;;;;16.06;44.72;100610.28;5074116;28;20052;-44
2022/05/30 08:51:15;;;;;;;2.80;0.93;;;;;;;16.24;43.44;100604.00;5055473;28;20072;-44
2022/05/30 08:54:20;;;;;;;4.55;0.88;;;;;;;16.39;43.17;100595.47;5060698;28;20040;-45
2022/05/30 08:56:49;;;;;;;1.90;0.85;;;;;;;16.46;42.96;100587.25;5041866;28;20025;-44
2022/05/30 08:59:46;;;;;;;4.15;1.17;;;;;;;16.49;43.03;100599.50;5073788;28;20073;-47
2022/05/30 09:02:22;;;;;;;3.53;1.20;;;;;;;16.55;43.44;100588.59;5060500;28;20032;-44
2022/05/30 09:04:55;;;;;;;2.58;1.10;;;;;;;16.48;44.02;100570.75;5055858;28;20050;-44
2022/05/30 09:07:26;;;;;;;1.63;0.70;;;;;;;16.60;43.02;100588.72;5073521;28;20151;-44
2022/05/30 09:10:02;;;;;;;5.20;1.05;;;;;;;16.67;43.12;100572.34;5072867;28;20043;-45
2022/05/30 09:12:37;;;;;;;3.92;1.45;;;;;;;17.02;42.20;100585.19;5073387;28;20035;-44
2022/05/30 09:15:26;;;;;;;2.47;0.93;;;;;;;17.08;42.58;100583.44;5073201;28;20029;-47
2022/05/30 09:18:17;;;;;;;4.32;1.10;;;;;;;17.15;41.60;100573.28;5059598;28;20084;-46
2022/05/30 09:20:42;;;;;;;5.03;1.30;;;;;;;17.43;42.40;100550.88;5060242;28;20105;-44
2022/05/30 09:23:11;;;;;;;2.65;0.93;;;;;;;17.80;41.21;100581.28;5073715;28;20056;-43
2022/05/30 09:26:28;;;;;;;2.53;1.00;;;;;;;18.47;40.58;100579.94;5055894;28;20063;-43
2022/05/30 09:28:32;;;;;;;7.40;1.42;;;;;;;19.26;38.77;100565.53;5059402;28;20028;-43
2022/05/30 09:31:23;;;;;;;4.47;1.00;;;;;;;19.04;38.18;100572.81;5074103;28;20047;-43
2022/05/30 09:33:53;;;;;;;3.45;0.80;;;;;;;18.50;39.61;100570.50;5059581;28;20039;-43
2022/05/30 09:36:21;;;;;;;1.95;0.90;;;;;;;18.10;39.68;100565.91;5055668;28;20033;-43
2022/05/30 09:39:07;;;;;;;1.88;0.95;;;;;;;17.36;41.48;100561.84;5041450;28;20040;-42
2022/05/30 09:41:55;;;;;;;2.28;0.98;;;;;;;17.03;41.65;100567.84;5055579;28;20343;-43
2022/05/30 09:44:25;;;;;;;1.52;0.85;;;;;;;16.66;42.05;100546.28;5059154;28;20033;-43
2022/05/30 09:46:59;;;;;;;2.65;0.80;;;;;;;16.39;43.74;100549.38;5073339;28;20043;-43
2022/05/30 09:49:38;;;;;;;1.23;0.70;;;;;;;16.11;44.39;100558.09;5073505;28;20108;-43
2022/05/30 09:52:37;;;;;;;1.80;0.82;;;;;;;15.66;45.06;100542.97;5055193;28;20021;-43
2022/05/30 09:55:33;;;;;;;4.65;1.15;;;;;;;15.07;45.64;100563.31;5073297;28;20024;-45
2022/05/30 09:57:59;;;;;;;2.88;0.90;;;;;;;14.81;47.38;100534.63;5074866;28;20392;-43
2022/05/30 10:00:54;;;;;;;4.03;0.98;;;;;;;14.62;46.77;100558.06;5074611;28;20024;-43
2022/05/30 10:03:31;;;;;;;3.97;1.35;;;;;;;14.36;47.99;100565.25;5046615;28;20093;-43
2022/05/30 10:06:20;;;;;;;3.33;0.93;;;;;;;14.18;49.20;100562.41;5078175;28;20054;-47
2022/05/30 10:08:46;;;;;;;2.58;1.00;;;;;;;14.13;48.75;100566.59;5060336;28;20037;-44
2022/05/30 10:11:32;;;;;;;3.53;1.30;;;;;;;13.84;49.04;100569.81;5060051;28;20071;-43
2022/05/30 10:13:59;;;;;;;3.83;1.88;;;;;;;13.77;50.03;100571.72;5077960;28;20025;-45
2022/05/30 10:16:35;;;;;;;3.53;1.40;;;;;;;13.88;50.16;100576.44;5077656;28;20025;-45
2022/05/30 10:19:06;;;;;;;3.20;1.02;;;;;;;13.87;49.24;100574.78;5060134;28;20032;-42
2022/05/30 10:28:25;;;;;;;4.72;1.20;;;;;;;13.53;51.02;100574.88;5081898;28;19938;-43
2022/05/30 10:31:08;;;;;;;6.72;1.40;;;;;;;13.58;51.63;100578.78;5070553;28;20038;-42
2022/05/30 10:34:12;;;;;;;2.67;1.20;;;;;;;13.67;51.50;100566.72;5078916;28;20066;-43
2022/05/30 10:37:04;;;;;;;2.83;1.40;;;;;;;13.50;51.70;100574.44;5085040;28;20036;-44
2022/05/30 10:39:57;;;;;;;3.08;1.50;;;;;;;13.57;53.63;100579.84;5082939;28;20093;-42
2022/05/30 10:42:35;;;;;;;7.00;1.20;;;;;;;13.50;56.48;100582.53;5065317;28;20032;-44
2022/05/30 10:45:12;;;;;;;4.68;1.63;;;;;;;13.30;59.07;100577.16;5078470;28;20449;-44
2022/05/30 10:47:45;;;;;;;4.07;1.40;;;;;;;13.45;57.18;100583.19;5096509;28;20084;-42
2022/05/30 10:50:19;;;;;;;3.33;1.23;;;;;;;13.27;55.16;100578.41;5096661;28;20082;-44
2022/05/30 10:52:54;;;;;;;2.88;0.98;;;;;;;13.24;54.69;100586.91;5096629;28;20097;-43
2022/05/30 10:55:31;;;;;;;1.38;0.90;;;;;;;13.29;54.67;100587.09;5078186;28;20028;-42
2022/05/30 10:58:01;;;;;;;1.23;0.77;;;;;;;13.33;54.47;100584.84;5096718;28;20558;-42
2022/05/30 11:00:34;;;;;;;2.00;1.02;;;;;;;13.35;53.51;100564.75;5077892;28;20039;-42
2022/05/30 11:03:26;;;;;;;1.85;1.05;;;;;;;13.36;54.18;100574.47;5078049;28;20035;-44
2022/05/30 11:06:31;;;;;;;2.70;0.90;;;;;;;13.26;54.49;100584.84;5081065;28;20058;-42
2022/05/30 11:09:22;;;;;;;1.65;0.80;;;;;;;13.13;56.59;100587.53;5070238;28;20033;-43
2022/05/30 11:12:00;;;;;;;3.65;1.20;;;;;;;13.14;56.44;100583.81;5063996;28;20024;-44
2022/05/30 11:14:51;;;;;;;3.63;1.10;;;;;;;13.11;57.72;100582.34;5077599;28;20032;-42
2022/05/30 11:17:28;;;;;;;2.58;1.20;;;;;;;12.97;57.89;100586.09;5082318;28;20484;-45
2022/05/30 11:20:05;;;;;;;1.65;1.00;;;;;;;12.73;59.05;100598.28;5096083;28;20028;-44
2022/05/30 11:22:36;;;;;;;2.08;1.35;;;;;;;12.47;59.17;100591.78;5077367;28;20372;-44
2022/05/30 11:25:04;;;;;;;1.45;1.08;;;;;;;12.35;59.95;100601.47;5058099;28;20024;-44
2022/05/30 11:27:36;;;;;;;4.28;1.45;;;;;;;12.16;61.31;100613.84;5075949;28;20024;-45
2022/05/30 11:30:17;;;;;;;1.33;0.98;;;;;;;12.10;61.54;100622.72;5075896;28;20064;-44
2022/05/30 11:33:13;;;;;;;1.55;1.20;;;;;;;11.96;62.28;100619.13;5058118;28;20369;-43
2022/05/30 11:35:53;;;;;;;2.42;1.00;;;;;;;11.84;62.06;100605.38;5043659;28;20090;-43
2022/05/30 11:38:50;;;;;;;4.53;1.02;;;;;;;11.86;62.39;100602.50;5075324;28;20024;-42
2022/05/30 11:41:44;;;;;;;1.70;0.82;;;;;;;11.84;62.61;100601.84;5060489;28;20056;-42
2022/05/30 11:44:48;;;;;;;3.45;1.35;;;;;;;11.99;63.14;100621.44;5043593;28;20033;-43
2022/05/30 11:47:32;;;;;;;2.55;1.30;;;;;;;11.80;65.46;100598.72;5045816;28;20055;-42
2022/05/30 11:50:38;;;;;;;1.90;1.10;;;;;;;11.86;64.91;100610.56;5075382;28;20469;-43
2022/05/30 11:53:26;;;;;;;3.45;1.30;;;;;;;11.76;64.54;100574.06;5032499;28;20068;-43
2022/05/30 11:56:17;;;;;;;3.75;0.90;;;;;;;11.93;63.37;100595.31;5075095;28;20491;-44
2022/05/30 11:59:13;;;;;;;1.85;1.52;;;;;;;11.98;63.59;100587.47;5060024;28;20028;-42
2022/05/30 12:01:43;;;;;;;0.82;0.70;;;;;;;12.19;62.75;100586.53;5043226;28;20024;-43
2022/05/30 12:04:38;;;;;;;1.08;0.80;;;;;;;12.33;62.92;100580.16;5057809;28;20024;-43
2022/05/30 12:07:22;;;;;;;;;;;;;;;12.71;62.01;100576.09;5058132;28;20032;-42